sensor_id;sensor_type;location;lat;lon;timestamp;pressure;altitude;pressure_sealevel;temperature;humidity
28797;BME280;24974;54.444;18.560;2023-01-29T00:02:26;101818.06;;;4.68;54.80
28797;BME280;24974;54.444;18.560;2023-01-29T00:04:57;101823.78;;;5.29;53.11
28797;BME280;24974;54.444;18.560;2023-01-29T00:07:29;101828.59;;;5.89;51.88
28797;BME280;24974;54.444;18.560;2023-01-29T00:10:00;101842.13;;;4.88;54.32
28797;BME280;24974;54.444;18.560;2023-01-29T00:12:31;101838.91;;;5.37;53.23
28797;BME280;24974;54.444;18.560;2023-01-29T00:15:02;101839.59;;;4.70;55.00
28797;BME280;24974;54.444;18.560;2023-01-29T00:17:33;101833.44;;;4.34;56.18
28797;BME280;24974;54.444;18.560;2023-01-29T00:20:04;101824.09;;;4.99;54.50
28797;BME280;24974;54.444;18.560;2023-01-29T00:22:37;101823.66;;;4.90;55.02
28797;BME280;24974;54.444;18.560;2023-01-29T00:25:08;101831.69;;;4.57;55.73
28797;BME280;24974;54.444;18.560;2023-01-29T00:27:39;101832.44;;;4.81;55.45
28797;BME280;24974;54.444;18.560;2023-01-29T00:30:10;101833.91;;;5.00;55.26
28797;BME280;24974;54.444;18.560;2023-01-29T00:32:42;101836.72;;;5.50;53.33
28797;BME280;24974;54.444;18.560;2023-01-29T00:35:13;101827.59;;;5.28;53.97
28797;BME280;24974;54.444;18.560;2023-01-29T00:37:45;101833.13;;;5.16;54.77
28797;BME280;24974;54.444;18.560;2023-01-29T00:40:16;101828.38;;;4.95;55.72
28797;BME280;24974;54.444;18.560;2023-01-29T00:42:47;101837.59;;;5.22;55.04
28797;BME280;24974;54.444;18.560;2023-01-29T00:45:37;101848.13;;;5.02;55.88
28797;BME280;24974;54.444;18.560;2023-01-29T00:48:09;101849.19;;;5.29;55.10
28797;BME280;24974;54.444;18.560;2023-01-29T00:50:40;101852.84;;;4.78;56.41
28797;BME280;24974;54.444;18.560;2023-01-29T00:53:11;101859.09;;;4.50;57.70
28797;BME280;24974;54.444;18.560;2023-01-29T00:55:43;101857.88;;;4.58;56.74
28797;BME280;24974;54.444;18.560;2023-01-29T00:58:14;101853.06;;;5.05;56.09
28797;BME280;24974;54.444;18.560;2023-01-29T01:00:51;101850.44;;;5.10;56.09
28797;BME280;24974;54.444;18.560;2023-01-29T01:03:22;101850.91;;;5.36;55.11
28797;BME280;24974;54.444;18.560;2023-01-29T01:06:06;101856.03;;;5.03;55.92
28797;BME280;24974;54.444;18.560;2023-01-29T01:08:37;101863.63;;;5.30;56.10
28797;BME280;24974;54.444;18.560;2023-01-29T01:11:26;101858.00;;;4.91;57.63
28797;BME280;24974;54.444;18.560;2023-01-29T01:13:57;101866.44;;;4.90;58.81
28797;BME280;24974;54.444;18.560;2023-01-29T01:16:31;101857.13;;;5.02;59.37
28797;BME280;24974;54.444;18.560;2023-01-29T01:19:03;101849.69;;;4.98;59.88
28797;BME280;24974;54.444;18.560;2023-01-29T01:21:34;101852.50;;;5.03;60.15
28797;BME280;24974;54.444;18.560;2023-01-29T01:24:05;101858.09;;;4.96;59.94
28797;BME280;24974;54.444;18.560;2023-01-29T01:26:36;101844.56;;;5.30;59.84
28797;BME280;24974;54.444;18.560;2023-01-29T01:29:07;101845.56;;;5.57;58.55
28797;BME280;24974;54.444;18.560;2023-01-29T01:31:38;101841.97;;;4.14;63.47
28797;BME280;24974;54.444;18.560;2023-01-29T01:34:09;101828.66;;;5.10;61.32
28797;BME280;24974;54.444;18.560;2023-01-29T01:36:40;101826.03;;;5.32;60.58
28797;BME280;24974;54.444;18.560;2023-01-29T01:39:11;101814.97;;;5.22;60.24
28797;BME280;24974;54.444;18.560;2023-01-29T01:41:42;101801.69;;;4.52;63.05
28797;BME280;24974;54.444;18.560;2023-01-29T06:13:27;101562.00;;;7.18;60.12
28797;BME280;24974;54.444;18.560;2023-01-29T06:15:57;101574.22;;;7.00;59.92
28797;BME280;24974;54.444;18.560;2023-01-29T06:18:28;101563.31;;;7.63;58.71
28797;BME280;24974;54.444;18.560;2023-01-29T06:21:00;101559.44;;;7.58;58.48
28797;BME280;24974;54.444;18.560;2023-01-29T06:23:32;101557.31;;;6.66;60.55
28797;BME280;24974;54.444;18.560;2023-01-29T06:26:11;101564.38;;;7.62;58.43
28797;BME280;24974;54.444;18.560;2023-01-29T06:28:42;101554.19;;;7.42;59.25
28797;BME280;24974;54.444;18.560;2023-01-29T06:31:15;101552.44;;;7.15;59.84
28797;BME280;24974;54.444;18.560;2023-01-29T06:33:46;101559.63;;;6.47;61.94
28797;BME280;24974;54.444;18.560;2023-01-29T06:36:17;101552.94;;;7.12;60.02
28797;BME280;24974;54.444;18.560;2023-01-29T06:38:47;101562.66;;;7.45;59.31
28797;BME280;24974;54.444;18.560;2023-01-29T06:41:19;101561.16;;;6.70;61.43
28797;BME280;24974;54.444;18.560;2023-01-29T06:43:54;101560.63;;;6.36;63.39
28797;BME280;24974;54.444;18.560;2023-01-29T06:46:25;101558.50;;;6.80;62.04
28797;BME280;24974;54.444;18.560;2023-01-29T06:48:57;101550.91;;;7.45;60.40
28797;BME280;24974;54.444;18.560;2023-01-29T06:51:30;101549.22;;;6.44;63.08
28797;BME280;24974;54.444;18.560;2023-01-29T06:54:00;101550.09;;;6.92;62.14
28797;BME280;24974;54.444;18.560;2023-01-29T06:56:31;101549.38;;;7.12;60.76
28797;BME280;24974;54.444;18.560;2023-01-29T06:59:02;101553.88;;;6.49;62.71
28797;BME280;24974;54.444;18.560;2023-01-29T07:01:33;101542.47;;;7.46;60.07
28797;BME280;24974;54.444;18.560;2023-01-29T07:04:04;101540.31;;;7.01;60.95
28797;BME280;24974;54.444;18.560;2023-01-29T07:06:35;101538.22;;;6.71;62.20
28797;BME280;24974;54.444;18.560;2023-01-29T07:09:06;101527.94;;;7.41;60.09
28797;BME280;24974;54.444;18.560;2023-01-29T07:11:37;101529.47;;;6.69;62.14
28797;BME280;24974;54.444;18.560;2023-01-29T07:14:08;101533.84;;;6.70;62.77
28797;BME280;24974;54.444;18.560;2023-01-29T07:16:39;101537.91;;;7.10;61.27
28797;BME280;24974;54.444;18.560;2023-01-29T07:19:10;101525.41;;;6.39;63.23
28797;BME280;24974;54.444;18.560;2023-01-29T07:21:41;101533.72;;;6.55;63.08
28797;BME280;24974;54.444;18.560;2023-01-29T07:24:12;101526.34;;;6.50;62.76
28797;BME280;24974;54.444;18.560;2023-01-29T07:26:42;101511.53;;;7.46;60.44
28797;BME280;24974;54.444;18.560;2023-01-29T07:29:13;101517.56;;;7.53;59.57
28797;BME280;24974;54.444;18.560;2023-01-29T07:31:44;101505.00;;;7.47;60.24
28797;BME280;24974;54.444;18.560;2023-01-29T07:34:15;101506.34;;;7.39;60.94
28797;BME280;24974;54.444;18.560;2023-01-29T07:36:45;101510.25;;;6.54;62.95
28797;BME280;24974;54.444;18.560;2023-01-29T07:39:16;101502.59;;;7.03;61.97
28797;BME280;24974;54.444;18.560;2023-01-29T07:41:48;101498.41;;;7.43;60.34
28797;BME280;24974;54.444;18.560;2023-01-29T07:44:21;101496.00;;;7.67;59.63
28797;BME280;24974;54.444;18.560;2023-01-29T07:46:52;101484.72;;;6.75;62.58
28797;BME280;24974;54.444;18.560;2023-01-29T07:49:23;101490.63;;;7.09;61.92
28797;BME280;24974;54.444;18.560;2023-01-29T07:51:54;101487.13;;;6.66;63.26
28797;BME280;24974;54.444;18.560;2023-01-29T07:54:25;101496.88;;;7.05;61.38
28797;BME280;24974;54.444;18.560;2023-01-29T07:56:55;101493.03;;;7.00;61.88
28797;BME280;24974;54.444;18.560;2023-01-29T07:59:26;101489.50;;;7.00;61.85
28797;BME280;24974;54.444;18.560;2023-01-29T08:01:57;101489.25;;;7.12;61.61
28797;BME280;24974;54.444;18.560;2023-01-29T08:04:28;101490.50;;;6.84;62.37
28797;BME280;24974;54.444;18.560;2023-01-29T08:06:59;101488.59;;;7.57;60.67
28797;BME280;24974;54.444;18.560;2023-01-29T08:09:30;101489.25;;;6.59;63.09
28797;BME280;24974;54.444;18.560;2023-01-29T08:12:01;101492.66;;;6.82;62.28
28797;BME280;24974;54.444;18.560;2023-01-29T08:14:32;101488.53;;;7.37;61.09
28797;BME280;24974;54.444;18.560;2023-01-29T08:17:03;101484.72;;;6.38;63.65
28797;BME280;24974;54.444;18.560;2023-01-29T08:19:34;101478.94;;;7.29;62.06
28797;BME280;24974;54.444;18.560;2023-01-29T08:22:05;101481.75;;;7.49;60.74
28797;BME280;24974;54.444;18.560;2023-01-29T08:24:36;101478.31;;;7.12;61.59
28797;BME280;24974;54.444;18.560;2023-01-29T08:27:07;101478.72;;;7.51;60.88
28797;BME280;24974;54.444;18.560;2023-01-29T08:29:38;101481.59;;;6.19;64.58
28797;BME280;24974;54.444;18.560;2023-01-29T08:32:09;101477.88;;;6.78;62.73
28797;BME280;24974;54.444;18.560;2023-01-29T08:34:41;101478.66;;;7.25;62.15
28797;BME280;24974;54.444;18.560;2023-01-29T08:37:11;101473.75;;;7.27;61.56
28797;BME280;24974;54.444;18.560;2023-01-29T08:39:42;101482.03;;;7.58;61.11
28797;BME280;24974;54.444;18.560;2023-01-29T08:42:13;101479.97;;;7.13;62.44
28797;BME280;24974;54.444;18.560;2023-01-29T08:44:44;101479.97;;;6.60;63.68
28797;BME280;24974;54.444;18.560;2023-01-29T08:47:15;101470.19;;;7.27;62.30
28797;BME280;24974;54.444;18.560;2023-01-29T08:49:45;101475.97;;;7.41;61.04
28797;BME280;24974;54.444;18.560;2023-01-29T08:52:17;101468.75;;;6.57;63.47
28797;BME280;24974;54.444;18.560;2023-01-29T08:54:47;101463.22;;;8.07;59.81
28797;BME280;24974;54.444;18.560;2023-01-29T08:57:18;101465.78;;;6.58;64.16
28797;BME280;24974;54.444;18.560;2023-01-29T08:59:49;101460.41;;;7.51;61.41
28797;BME280;24974;54.444;18.560;2023-01-29T09:02:20;101462.97;;;7.06;62.01
28797;BME280;24974;54.444;18.560;2023-01-29T09:04:51;101449.16;;;7.38;62.34
28797;BME280;24974;54.444;18.560;2023-01-29T09:07:22;101455.03;;;6.94;62.97
28797;BME280;24974;54.444;18.560;2023-01-29T09:09:52;101441.94;;;7.01;62.50
28797;BME280;24974;54.444;18.560;2023-01-29T09:12:24;101439.84;;;7.34;62.00
28797;BME280;24974;54.444;18.560;2023-01-29T09:14:55;101450.34;;;6.84;63.64
28797;BME280;24974;54.444;18.560;2023-01-29T09:17:26;101453.44;;;7.13;62.21
28797;BME280;24974;54.444;18.560;2023-01-29T09:19:57;101452.22;;;7.67;60.95
28797;BME280;24974;54.444;18.560;2023-01-29T09:22:28;101456.84;;;7.51;61.68
28797;BME280;24974;54.444;18.560;2023-01-29T09:24:59;101454.81;;;7.11;62.63
28797;BME280;24974;54.444;18.560;2023-01-29T09:27:29;101468.72;;;6.52;63.54
28797;BME280;24974;54.444;18.560;2023-01-29T09:30:00;101445.91;;;7.41;61.62
28797;BME280;24974;54.444;18.560;2023-01-29T09:32:33;101452.75;;;7.48;61.47
28797;BME280;24974;54.444;18.560;2023-01-29T09:35:04;101446.06;;;7.09;62.71
28797;BME280;24974;54.444;18.560;2023-01-29T09:37:35;101452.63;;;7.08;62.29
28797;BME280;24974;54.444;18.560;2023-01-29T09:40:10;101440.22;;;7.63;61.80
28797;BME280;24974;54.444;18.560;2023-01-29T09:42:53;101435.53;;;6.75;64.08
28797;BME280;24974;54.444;18.560;2023-01-29T09:45:26;101445.34;;;7.44;62.31
28797;BME280;24974;54.444;18.560;2023-01-29T09:48:01;101439.06;;;7.38;62.36
28797;BME280;24974;54.444;18.560;2023-01-29T09:50:43;101434.00;;;6.47;65.54
28797;BME280;24974;54.444;18.560;2023-01-29T09:53:20;101437.25;;;6.91;64.66
28797;BME280;24974;54.444;18.560;2023-01-29T09:58:34;101437.88;;;6.51;65.60
28797;BME280;24974;54.444;18.560;2023-01-29T10:07:05;101433.53;;;6.60;64.39
28797;BME280;24974;54.444;18.560;2023-01-29T10:10:15;101434.75;;;6.85;63.48
28797;BME280;24974;54.444;18.560;2023-01-29T10:13:01;101445.06;;;6.72;63.58
28797;BME280;24974;54.444;18.560;2023-01-29T10:23:47;101417.34;;;7.01;63.31
28797;BME280;24974;54.444;18.560;2023-01-29T10:26:23;101407.69;;;6.78;63.95
28797;BME280;24974;54.444;18.560;2023-01-29T10:28:57;101407.34;;;6.64;63.65
28797;BME280;24974;54.444;18.560;2023-01-29T10:31:32;101392.13;;;6.26;64.92
28797;BME280;24974;54.444;18.560;2023-01-29T10:36:54;101385.34;;;6.91;63.52
28797;BME280;24974;54.444;18.560;2023-01-29T10:39:26;101389.03;;;7.48;62.67
28797;BME280;24974;54.444;18.560;2023-01-29T10:59:53;101355.38;;;7.98;61.54
28797;BME280;24974;54.444;18.560;2023-01-29T11:02:25;101352.38;;;7.59;62.29
28797;BME280;24974;54.444;18.560;2023-01-29T11:04:56;101352.66;;;7.42;61.86
28797;BME280;24974;54.444;18.560;2023-01-29T11:07:27;101349.03;;;8.38;60.35
28797;BME280;24974;54.444;18.560;2023-01-29T11:10:10;101344.16;;;7.59;61.48
28797;BME280;24974;54.444;18.560;2023-01-29T11:12:44;101344.41;;;7.27;62.27
28797;BME280;24974;54.444;18.560;2023-01-29T11:15:18;101327.47;;;7.35;62.22
28797;BME280;24974;54.444;18.560;2023-01-29T11:18:12;101350.94;;;7.06;62.62
28797;BME280;24974;54.444;18.560;2023-01-29T11:20:45;101319.28;;;7.71;61.36
28797;BME280;24974;54.444;18.560;2023-01-29T11:25:57;101306.97;;;7.73;61.32
28797;BME280;24974;54.444;18.560;2023-01-29T11:28:39;101311.38;;;7.54;62.62
28797;BME280;24974;54.444;18.560;2023-01-29T11:31:20;101302.81;;;7.05;63.02
28797;BME280;24974;54.444;18.560;2023-01-29T11:34:00;101310.78;;;7.21;62.52
28797;BME280;24974;54.444;18.560;2023-01-29T11:36:37;101304.22;;;7.78;61.12
28797;BME280;24974;54.444;18.560;2023-01-29T11:39:20;101300.69;;;7.47;61.89
28797;BME280;24974;54.444;18.560;2023-01-29T11:41:55;101309.72;;;7.43;62.14
28797;BME280;24974;54.444;18.560;2023-01-29T11:47:18;101302.34;;;7.38;62.33
28797;BME280;24974;54.444;18.560;2023-01-29T11:49:59;101303.66;;;7.76;61.52
28797;BME280;24974;54.444;18.560;2023-01-29T11:52:36;101313.81;;;7.45;62.71
28797;BME280;24974;54.444;18.560;2023-01-29T11:55:30;101296.28;;;7.21;64.79
28797;BME280;24974;54.444;18.560;2023-01-29T12:00:54;101294.38;;;7.26;64.73
28797;BME280;24974;54.444;18.560;2023-01-29T12:03:41;101285.56;;;8.01;62.43
28797;BME280;24974;54.444;18.560;2023-01-29T12:06:19;101301.78;;;7.41;63.39
28797;BME280;24974;54.444;18.560;2023-01-29T12:08:56;101291.94;;;7.35;64.04
28797;BME280;24974;54.444;18.560;2023-01-29T12:11:32;101288.22;;;8.31;61.05
28797;BME280;24974;54.444;18.560;2023-01-29T12:14:05;101291.59;;;6.96;65.27
28797;BME280;24974;54.444;18.560;2023-01-29T12:16:39;101273.88;;;7.24;63.67
28797;BME280;24974;54.444;18.560;2023-01-29T13:45:00;101171.91;;;6.88;64.48
28797;BME280;24974;54.444;18.560;2023-01-29T13:47:35;101181.50;;;6.85;64.09
28797;BME280;24974;54.444;18.560;2023-01-29T13:52:44;101171.88;;;7.49;63.64
28797;BME280;24974;54.444;18.560;2023-01-29T13:57:49;101168.53;;;7.72;62.19
28797;BME280;24974;54.444;18.560;2023-01-29T14:08:05;101186.69;;;6.77;64.90
28797;BME280;24974;54.444;18.560;2023-01-29T14:13:47;101177.41;;;7.08;64.16
28797;BME280;24974;54.444;18.560;2023-01-29T14:18:55;101190.09;;;7.84;62.52
28797;BME280;24974;54.444;18.560;2023-01-29T14:21:31;101191.78;;;7.70;62.15
28797;BME280;24974;54.444;18.560;2023-01-29T14:24:29;101186.66;;;7.27;62.88
28797;BME280;24974;54.444;18.560;2023-01-29T14:27:00;101182.78;;;7.59;61.89
28797;BME280;24974;54.444;18.560;2023-01-29T14:29:37;101183.41;;;7.05;63.01
28797;BME280;24974;54.444;18.560;2023-01-29T14:34:53;101170.81;;;7.04;63.46
28797;BME280;24974;54.444;18.560;2023-01-29T14:37:33;101175.44;;;7.34;62.41
28797;BME280;24974;54.444;18.560;2023-01-29T14:40:29;101188.34;;;6.83;63.98
28797;BME280;24974;54.444;18.560;2023-01-29T14:43:18;101172.75;;;7.09;63.66
28797;BME280;24974;54.444;18.560;2023-01-29T14:45:50;101156.56;;;7.43;62.51
28797;BME280;24974;54.444;18.560;2023-01-29T14:48:46;101158.72;;;7.56;62.20
28797;BME280;24974;54.444;18.560;2023-01-29T14:51:19;101159.59;;;7.31;63.07
28797;BME280;24974;54.444;18.560;2023-01-29T14:54:27;101157.28;;;7.79;61.60
28797;BME280;24974;54.444;18.560;2023-01-29T14:57:02;101152.81;;;8.03;60.96
28797;BME280;24974;54.444;18.560;2023-01-29T14:59:48;101151.72;;;8.04;60.48
28797;BME280;24974;54.444;18.560;2023-01-29T15:02:24;101143.38;;;7.60;62.09
28797;BME280;24974;54.444;18.560;2023-01-29T15:04:57;101146.44;;;7.43;62.11
28797;BME280;24974;54.444;18.560;2023-01-29T15:07:46;101144.63;;;6.98;63.91
28797;BME280;24974;54.444;18.560;2023-01-29T15:10:24;101135.75;;;7.52;62.18
28797;BME280;24974;54.444;18.560;2023-01-29T15:13:03;101126.97;;;7.60;61.95
28797;BME280;24974;54.444;18.560;2023-01-29T15:15:45;101118.78;;;7.60;61.49
28797;BME280;24974;54.444;18.560;2023-01-29T15:18:27;101107.00;;;7.60;61.51
28797;BME280;24974;54.444;18.560;2023-01-29T15:21:02;101103.13;;;7.76;61.27
28797;BME280;24974;54.444;18.560;2023-01-29T15:23:33;101106.78;;;7.51;61.97
28797;BME280;24974;54.444;18.560;2023-01-29T15:26:06;101116.41;;;7.28;62.32
28797;BME280;24974;54.444;18.560;2023-01-29T15:28:38;101109.31;;;7.32;62.18
28797;BME280;24974;54.444;18.560;2023-01-29T15:31:15;101113.94;;;7.26;62.78
28797;BME280;24974;54.444;18.560;2023-01-29T15:33:50;101091.13;;;8.21;60.17
28797;BME280;24974;54.444;18.560;2023-01-29T15:36:25;101098.81;;;8.14;60.31
28797;BME280;24974;54.444;18.560;2023-01-29T15:41:49;101086.38;;;7.88;60.79
28797;BME280;24974;54.444;18.560;2023-01-29T15:44:22;101089.78;;;7.64;61.18
28797;BME280;24974;54.444;18.560;2023-01-29T15:46:58;101090.97;;;7.27;62.46
28797;BME280;24974;54.444;18.560;2023-01-29T15:49:32;101087.53;;;7.76;60.85
28797;BME280;24974;54.444;18.560;2023-01-29T15:52:20;101087.28;;;7.73;61.17
28797;BME280;24974;54.444;18.560;2023-01-29T15:54:55;101086.28;;;7.43;62.11
28797;BME280;24974;54.444;18.560;2023-01-29T15:57:35;101080.22;;;7.56;61.63
28797;BME280;24974;54.444;18.560;2023-01-29T16:00:23;101084.09;;;7.45;61.73
28797;BME280;24974;54.444;18.560;2023-01-29T16:02:57;101078.75;;;7.79;60.99
28797;BME280;24974;54.444;18.560;2023-01-29T16:05:30;101075.25;;;7.69;61.09
28797;BME280;24974;54.444;18.560;2023-01-29T16:08:02;101077.00;;;8.04;60.13
28797;BME280;24974;54.444;18.560;2023-01-29T16:10:34;101069.56;;;7.55;61.77
28797;BME280;24974;54.444;18.560;2023-01-29T16:13:10;101070.03;;;7.72;60.87
28797;BME280;24974;54.444;18.560;2023-01-29T16:18:46;101058.38;;;8.01;60.13
28797;BME280;24974;54.444;18.560;2023-01-29T16:24:07;101056.06;;;7.79;61.02
28797;BME280;24974;54.444;18.560;2023-01-29T16:26:47;101055.97;;;7.35;62.09
28797;BME280;24974;54.444;18.560;2023-01-29T16:29:28;101060.97;;;7.82;61.33
28797;BME280;24974;54.444;18.560;2023-01-29T16:32:01;101054.19;;;6.84;64.15
28797;BME280;24974;54.444;18.560;2023-01-29T16:34:35;101057.97;;;7.78;61.85
28797;BME280;24974;54.444;18.560;2023-01-29T16:39:48;101049.63;;;7.54;61.76
28797;BME280;24974;54.444;18.560;2023-01-29T16:45:11;101041.47;;;7.34;63.04
28797;BME280;24974;54.444;18.560;2023-01-29T16:48:19;101033.41;;;8.12;60.85
28797;BME280;24974;54.444;18.560;2023-01-29T16:51:10;101038.69;;;7.49;61.83
28797;BME280;24974;54.444;18.560;2023-01-29T16:53:59;101029.47;;;7.84;61.27
28797;BME280;24974;54.444;18.560;2023-01-29T16:56:31;101026.91;;;8.43;59.62
28797;BME280;24974;54.444;18.560;2023-01-29T16:59:04;101047.72;;;7.50;61.09
28797;BME280;24974;54.444;18.560;2023-01-29T17:01:36;101026.03;;;6.94;63.56
28797;BME280;24974;54.444;18.560;2023-01-29T17:04:12;101029.50;;;7.20;63.27
28797;BME280;24974;54.444;18.560;2023-01-29T17:06:49;101023.63;;;7.52;63.02
28797;BME280;24974;54.444;18.560;2023-01-29T17:09:29;101015.66;;;6.86;64.41
28797;BME280;24974;54.444;18.560;2023-01-29T17:12:06;101017.50;;;7.11;63.92
28797;BME280;24974;54.444;18.560;2023-01-29T17:14:37;101013.16;;;8.08;60.82
28797;BME280;24974;54.444;18.560;2023-01-29T17:17:15;101007.19;;;7.57;62.37
28797;BME280;24974;54.444;18.560;2023-01-29T17:19:46;101005.56;;;8.00;61.24
28797;BME280;24974;54.444;18.560;2023-01-29T17:22:17;101005.28;;;7.57;62.27
28797;BME280;24974;54.444;18.560;2023-01-29T17:24:48;101003.38;;;7.53;63.07
28797;BME280;24974;54.444;18.560;2023-01-29T17:27:22;101003.56;;;7.12;63.33
28797;BME280;24974;54.444;18.560;2023-01-29T17:29:53;100998.75;;;7.98;61.80
28797;BME280;24974;54.444;18.560;2023-01-29T17:32:24;101000.13;;;7.46;62.99
28797;BME280;24974;54.444;18.560;2023-01-29T17:34:57;100995.63;;;7.11;63.88
28797;BME280;24974;54.444;18.560;2023-01-29T17:37:28;100987.50;;;8.38;60.04
28797;BME280;24974;54.444;18.560;2023-01-29T17:39:59;100971.63;;;8.64;59.71
28797;BME280;24974;54.444;18.560;2023-01-29T17:42:30;100971.41;;;7.93;61.16
28797;BME280;24974;54.444;18.560;2023-01-29T17:45:01;100968.75;;;8.17;60.80
28797;BME280;24974;54.444;18.560;2023-01-29T17:47:31;100962.00;;;8.43;59.89
28797;BME280;24974;54.444;18.560;2023-01-29T17:50:12;100956.78;;;8.07;60.60
28797;BME280;24974;54.444;18.560;2023-01-29T17:52:47;100951.56;;;7.27;62.69
28797;BME280;24974;54.444;18.560;2023-01-29T17:55:18;100933.50;;;6.67;64.02
28797;BME280;24974;54.444;18.560;2023-01-29T17:57:49;100928.25;;;8.19;60.45
28797;BME280;24974;54.444;18.560;2023-01-29T18:00:22;100925.22;;;6.92;64.21
28797;BME280;24974;54.444;18.560;2023-01-29T18:02:53;100922.25;;;7.77;61.29
28797;BME280;24974;54.444;18.560;2023-01-29T18:05:24;100919.75;;;8.73;58.55
28797;BME280;24974;54.444;18.560;2023-01-29T18:07:54;100911.69;;;8.82;58.19
28797;BME280;24974;54.444;18.560;2023-01-29T18:10:25;100916.06;;;8.30;59.98
28797;BME280;24974;54.444;18.560;2023-01-29T18:12:56;100910.22;;;8.12;60.09
28797;BME280;24974;54.444;18.560;2023-01-29T18:15:27;100903.25;;;8.78;58.61
28797;BME280;24974;54.444;18.560;2023-01-29T18:17:58;100905.03;;;8.69;58.67
28797;BME280;24974;54.444;18.560;2023-01-29T18:20:30;100905.91;;;7.28;62.33
28797;BME280;24974;54.444;18.560;2023-01-29T18:23:02;100897.75;;;8.59;59.36
28797;BME280;24974;54.444;18.560;2023-01-29T18:25:35;100895.16;;;8.68;58.52
28797;BME280;24974;54.444;18.560;2023-01-29T18:28:11;100891.53;;;8.96;57.87
28797;BME280;24974;54.444;18.560;2023-01-29T18:30:44;100888.09;;;8.38;59.44
28797;BME280;24974;54.444;18.560;2023-01-29T18:33:16;100885.25;;;7.85;60.71
28797;BME280;24974;54.444;18.560;2023-01-29T18:35:47;100884.38;;;7.95;60.53
28797;BME280;24974;54.444;18.560;2023-01-29T18:38:18;100884.59;;;6.65;64.39
28797;BME280;24974;54.444;18.560;2023-01-29T18:40:49;100876.53;;;7.49;62.54
28797;BME280;24974;54.444;18.560;2023-01-29T18:43:20;100862.00;;;7.14;62.82
28797;BME280;24974;54.444;18.560;2023-01-29T18:45:50;100857.09;;;7.84;61.15
28797;BME280;24974;54.444;18.560;2023-01-29T18:48:21;100853.13;;;7.33;62.61
28797;BME280;24974;54.444;18.560;2023-01-29T18:50:52;100833.31;;;8.09;59.81
28797;BME280;24974;54.444;18.560;2023-01-29T18:53:23;100832.59;;;7.98;60.04
28797;BME280;24974;54.444;18.560;2023-01-29T18:56:01;100807.25;;;7.58;60.73
28797;BME280;24974;54.444;18.560;2023-01-29T18:58:36;100821.25;;;7.86;60.69
28797;BME280;24974;54.444;18.560;2023-01-29T19:01:08;100826.78;;;7.76;60.14
28797;BME280;24974;54.444;18.560;2023-01-29T19:03:41;100823.69;;;7.88;60.22
28797;BME280;24974;54.444;18.560;2023-01-29T19:06:12;100814.41;;;7.83;60.26
28797;BME280;24974;54.444;18.560;2023-01-29T19:08:43;100808.06;;;8.65;58.22
28797;BME280;24974;54.444;18.560;2023-01-29T19:11:14;100796.31;;;8.40;59.31
28797;BME280;24974;54.444;18.560;2023-01-29T19:13:45;100801.41;;;8.71;57.81
28797;BME280;24974;54.444;18.560;2023-01-29T19:16:17;100804.78;;;7.62;60.94
28797;BME280;24974;54.444;18.560;2023-01-29T19:18:48;100795.75;;;8.44;58.98
28797;BME280;24974;54.444;18.560;2023-01-29T19:21:18;100792.34;;;8.04;59.66
28797;BME280;24974;54.444;18.560;2023-01-29T19:23:49;100787.81;;;8.18;59.81
28797;BME280;24974;54.444;18.560;2023-01-29T19:26:21;100788.31;;;7.96;60.09
28797;BME280;24974;54.444;18.560;2023-01-29T19:28:51;100794.09;;;7.61;60.72
28797;BME280;24974;54.444;18.560;2023-01-29T19:31:22;100772.59;;;7.49;61.21
28797;BME280;24974;54.444;18.560;2023-01-29T19:33:53;100785.41;;;8.59;58.32
28797;BME280;24974;54.444;18.560;2023-01-29T19:36:24;100783.34;;;7.69;60.42
28797;BME280;24974;54.444;18.560;2023-01-29T19:38:55;100768.09;;;7.29;61.92
28797;BME280;24974;54.444;18.560;2023-01-29T19:41:26;100762.06;;;7.66;61.16
28797;BME280;24974;54.444;18.560;2023-01-29T19:43:57;100765.31;;;7.68;60.67
28797;BME280;24974;54.444;18.560;2023-01-29T19:46:28;100752.03;;;8.76;57.97
28797;BME280;24974;54.444;18.560;2023-01-29T19:48:59;100741.63;;;8.11;59.43
28797;BME280;24974;54.444;18.560;2023-01-29T19:51:30;100744.88;;;7.61;60.30
28797;BME280;24974;54.444;18.560;2023-01-29T19:54:01;100746.84;;;7.55;61.25
28797;BME280;24974;54.444;18.560;2023-01-29T19:56:33;100729.88;;;8.35;59.20
28797;BME280;24974;54.444;18.560;2023-01-29T19:59:04;100726.13;;;7.49;61.07
28797;BME280;24974;54.444;18.560;2023-01-29T20:01:36;100707.69;;;7.31;62.00
28797;BME280;24974;54.444;18.560;2023-01-29T20:04:07;100715.63;;;7.32;62.17
28797;BME280;24974;54.444;18.560;2023-01-29T20:06:38;100695.31;;;7.67;61.10
28797;BME280;24974;54.444;18.560;2023-01-29T20:09:09;100689.66;;;6.95;62.67
28797;BME280;24974;54.444;18.560;2023-01-29T20:11:40;100686.88;;;7.64;60.78
28797;BME280;24974;54.444;18.560;2023-01-29T20:14:11;100687.84;;;7.73;60.28
28797;BME280;24974;54.444;18.560;2023-01-29T20:16:41;100691.38;;;7.49;61.28
28797;BME280;24974;54.444;18.560;2023-01-29T20:19:12;100687.34;;;7.42;61.61
28797;BME280;24974;54.444;18.560;2023-01-29T20:21:45;100680.78;;;7.43;61.32
28797;BME280;24974;54.444;18.560;2023-01-29T20:24:18;100682.56;;;7.28;61.88
28797;BME280;24974;54.444;18.560;2023-01-29T20:26:49;100676.50;;;7.84;60.53
28797;BME280;24974;54.444;18.560;2023-01-29T20:29:20;100666.19;;;7.76;60.12
28797;BME280;24974;54.444;18.560;2023-01-29T20:31:50;100690.28;;;8.22;58.94
28797;BME280;24974;54.444;18.560;2023-01-29T20:34:22;100690.53;;;7.25;61.10
28797;BME280;24974;54.444;18.560;2023-01-29T20:36:53;100684.06;;;6.77;62.75
28797;BME280;24974;54.444;18.560;2023-01-29T20:39:24;100677.38;;;6.98;62.99
28797;BME280;24974;54.444;18.560;2023-01-29T20:41:55;100680.91;;;7.27;62.16